createdAt,value
2022-12-14T00:01:49.589Z,-5.59
2022-12-14T00:04:17.467Z,-5.57
2022-12-14T00:06:45.306Z,-5.52
2022-12-14T00:09:13.232Z,-5.53
2022-12-14T00:11:40.734Z,-5.53
2022-12-14T00:14:08.166Z,-5.54
2022-12-14T00:16:36.372Z,-5.51
2022-12-14T00:19:05.494Z,-5.53
2022-12-14T00:21:33.318Z,-5.52
2022-12-14T00:24:00.917Z,-5.51
2022-12-14T00:26:33.525Z,-5.49
2022-12-14T00:29:02.357Z,-5.46
2022-12-14T00:31:32.091Z,-5.47
2022-12-14T00:34:01.283Z,-5.44
2022-12-14T00:36:31.632Z,-5.46
2022-12-14T00:38:59.683Z,-5.42
2022-12-14T00:41:27.491Z,-5.37
2022-12-14T00:43:54.977Z,-5.39
2022-12-14T00:46:22.835Z,-5.36
2022-12-14T00:48:50.302Z,-5.29
2022-12-14T00:51:18.452Z,-5.31
2022-12-14T00:53:45.901Z,-5.32
2022-12-14T00:56:13.365Z,-5.38
2022-12-14T00:58:40.910Z,-5.39
2022-12-14T01:01:14.724Z,-5.38
2022-12-14T01:03:42.854Z,-5.37
2022-12-14T01:06:24.018Z,-5.36
2022-12-14T01:08:51.435Z,-5.42
2022-12-14T01:11:19.248Z,-5.39
2022-12-14T01:13:49.467Z,-5.40
2022-12-14T01:16:22.563Z,-5.42
2022-12-14T01:18:50.219Z,-5.41
2022-12-14T01:21:23.557Z,-5.41
2022-12-14T01:23:54.616Z,-5.36
2022-12-14T01:26:23.919Z,-5.37
2022-12-14T01:28:53.767Z,-5.44
2022-12-14T01:31:23.859Z,-5.42
2022-12-14T01:33:51.349Z,-5.34
2022-12-14T01:36:21.959Z,-5.33
2022-12-14T01:38:53.966Z,-5.31
2022-12-14T01:41:26.185Z,-5.37
2022-12-14T01:43:59.441Z,-5.31
2022-12-14T01:46:29.545Z,-5.30
2022-12-14T01:49:06.057Z,-5.30
2022-12-14T01:51:34.978Z,-5.31
2022-12-14T01:54:05.305Z,-5.37
2022-12-14T01:56:36.580Z,-5.37
2022-12-14T01:59:11.491Z,-5.31
2022-12-14T02:01:39.757Z,-5.29
2022-12-14T02:04:08.452Z,-5.33
2022-12-14T02:06:40.333Z,-5.33
2022-12-14T02:09:12.797Z,-5.36
2022-12-14T02:11:53.804Z,-5.35
2022-12-14T02:14:22.139Z,-5.32
2022-12-14T02:16:52.362Z,-5.28
2022-12-14T02:19:19.851Z,-5.29
2022-12-14T02:22:05.578Z,-5.23
2022-12-14T02:24:38.870Z,-5.18
2022-12-14T02:27:21.398Z,-5.14
2022-12-14T02:29:56.535Z,-5.08
2022-12-14T02:32:34.949Z,-5.02
2022-12-14T02:35:30.717Z,-4.98
2022-12-14T02:38:19.690Z,-4.91
2022-12-14T02:41:11.519Z,-4.85
2022-12-14T02:43:57.190Z,-4.82
2022-12-14T02:46:39.441Z,-4.82
2022-12-14T02:49:38.574Z,-4.81
2022-12-14T02:52:24.729Z,-4.78
2022-12-14T02:54:58.607Z,-4.77
2022-12-14T02:57:36.942Z,-4.79
2022-12-14T03:00:06.696Z,-4.84
2022-12-14T03:02:40.614Z,-4.89
2022-12-14T03:05:08.339Z,-4.86
2022-12-14T03:07:43.943Z,-4.79
2022-12-14T03:10:34.313Z,-4.79
2022-12-14T03:13:24.927Z,-4.75
2022-12-14T03:16:03.237Z,-4.71
2022-12-14T03:18:38.025Z,-4.68
2022-12-14T03:21:10.205Z,-4.67
2022-12-14T03:23:41.161Z,-4.77
2022-12-14T03:26:35.752Z,-4.80
2022-12-14T03:29:10.530Z,-4.87
2022-12-14T03:31:42.573Z,-4.95
2022-12-14T03:34:20.929Z,-4.98
2022-12-14T03:37:02.733Z,-4.99
2022-12-14T03:39:34.449Z,-4.98
2022-12-14T03:42:15.902Z,-4.94
2022-12-14T03:44:49.648Z,-4.92
2022-12-14T03:47:49.481Z,-4.84
2022-12-14T03:50:46.326Z,-4.79
2022-12-14T03:53:46.367Z,-4.76
2022-12-14T03:56:37.041Z,-4.72
2022-12-14T03:59:04.727Z,-4.68
2022-12-14T04:01:50.253Z,-4.68
2022-12-14T04:04:20.551Z,-4.63
2022-12-14T04:07:03.078Z,-4.65
2022-12-14T04:09:53.678Z,-4.65
2022-12-14T04:12:51.637Z,-4.72
2022-12-14T04:15:43.444Z,-4.65
2022-12-14T04:18:34.723Z,-4.59
2022-12-14T04:21:28.252Z,-4.56
2022-12-14T04:24:20.447Z,-4.55
2022-12-14T04:27:01.925Z,-4.47
2022-12-14T04:29:51.843Z,-4.45
2022-12-14T04:32:38.167Z,-4.47
2022-12-14T04:35:23.201Z,-4.50
2022-12-14T04:37:57.721Z,-4.47
2022-12-14T04:40:31.455Z,-4.50
2022-12-14T04:43:06.566Z,-4.52
2022-12-14T04:45:47.102Z,-4.52
2022-12-14T04:48:25.055Z,-4.55
2022-12-14T04:50:58.107Z,-4.59
2022-12-14T04:53:30.698Z,-4.59
2022-12-14T04:56:16.063Z,-4.57
2022-12-14T04:58:44.305Z,-4.59
2022-12-14T05:01:41.087Z,-4.53
2022-12-14T05:04:12.883Z,-4.55
2022-12-14T05:07:11.195Z,-4.58
2022-12-14T05:09:55.003Z,-4.68
2022-12-14T05:12:47.325Z,-4.75
2022-12-14T05:15:23.429Z,-4.86
2022-12-14T05:17:52.551Z,-4.81
2022-12-14T05:20:21.735Z,-4.81
2022-12-14T05:22:50.112Z,-4.80
2022-12-14T05:25:17.706Z,-4.84
2022-12-14T05:27:46.245Z,-4.94
2022-12-14T05:30:14.124Z,-5.01
2022-12-14T05:32:41.754Z,-5.10
2022-12-14T05:35:13.950Z,-5.12
2022-12-14T05:37:42.984Z,-5.10
2022-12-14T05:40:11.387Z,-5.04
2022-12-14T05:42:44.364Z,-5.04
2022-12-14T05:45:14.581Z,-5.02
2022-12-14T05:47:42.108Z,-5.00
2022-12-14T05:50:09.810Z,-5.09
2022-12-14T05:52:37.295Z,-5.14
2022-12-14T05:55:05.172Z,-5.18
2022-12-14T05:57:32.674Z,-5.18
2022-12-14T06:00:00.381Z,-5.16
2022-12-14T06:02:27.981Z,-5.21
2022-12-14T06:04:55.576Z,-5.20
2022-12-14T06:07:27.480Z,-5.19
2022-12-14T06:09:55.885Z,-5.22
2022-12-14T06:12:23.296Z,-5.18
2022-12-14T06:14:50.767Z,-5.16
2022-12-14T06:17:18.365Z,-5.11
2022-12-14T06:19:49.814Z,-5.11
2022-12-14T06:22:18.631Z,-5.13
2022-12-14T06:24:46.076Z,-5.14
2022-12-14T06:27:13.523Z,-5.04
2022-12-14T06:29:41.944Z,-5.14
2022-12-14T06:32:09.448Z,-5.13
2022-12-14T06:34:40.641Z,-5.13
2022-12-14T06:37:09.686Z,-5.19
2022-12-14T06:39:37.576Z,-5.27
2022-12-14T06:42:05.748Z,-5.31
2022-12-14T06:44:33.478Z,-5.28
2022-12-14T06:47:01.356Z,-5.31
2022-12-14T06:49:29.341Z,-5.27
2022-12-14T06:51:57.032Z,-5.33
2022-12-14T06:54:24.929Z,-5.27
2022-12-14T06:56:52.419Z,-5.20
2022-12-14T06:59:20.168Z,-5.24
2022-12-14T07:01:50.195Z,-5.20
2022-12-14T07:04:21.405Z,-5.24
2022-12-14T07:06:49.388Z,-5.30
2022-12-14T07:09:17.246Z,-5.27
2022-12-14T07:11:44.890Z,-5.30
2022-12-14T07:14:17.111Z,-5.31
2022-12-14T07:16:48.325Z,-5.28
2022-12-14T07:19:17.672Z,-5.20
2022-12-14T07:21:45.530Z,-5.27
2022-12-14T07:24:13.644Z,-5.20
2022-12-14T07:26:41.357Z,-5.12
2022-12-14T07:29:11.716Z,-5.17
2022-12-14T07:31:39.607Z,-5.11
2022-12-14T07:34:07.396Z,-5.13
2022-12-14T07:36:35.160Z,-5.19
2022-12-14T07:39:02.866Z,-5.05
2022-12-14T07:41:32.465Z,-5.01
2022-12-14T07:44:00.707Z,-5.05
2022-12-14T07:46:30.455Z,-5.14
2022-12-14T07:48:59.591Z,-5.16
2022-12-14T07:51:30.102Z,-5.13
2022-12-14T07:53:58.729Z,-5.13
2022-12-14T07:56:31.897Z,-5.07
2022-12-14T07:59:01.325Z,-4.98
2022-12-14T08:01:29.936Z,-5.06
2022-12-14T08:04:08.954Z,-5.02
2022-12-14T08:06:37.794Z,-4.99
2022-12-14T08:09:07.036Z,-5.02
2022-12-14T08:11:35.075Z,-4.95
2022-12-14T08:14:06.420Z,-4.93
2022-12-14T08:16:34.445Z,-4.89
2022-12-14T08:19:02.870Z,-4.83
2022-12-14T08:21:31.064Z,-4.85
2022-12-14T08:23:59.268Z,-4.88
2022-12-14T08:26:33.321Z,-4.85
2022-12-14T08:29:03.982Z,-4.81
2022-12-14T08:31:32.891Z,-4.78
2022-12-14T08:34:02.047Z,-4.83
2022-12-14T08:36:33.986Z,-4.90
2022-12-14T08:39:06.761Z,-4.89
2022-12-14T08:41:35.058Z,-4.88
2022-12-14T08:44:03.945Z,-4.80
2022-12-14T08:46:35.878Z,-4.88
2022-12-14T08:49:04.004Z,-4.82
2022-12-14T08:51:31.489Z,-4.92
2022-12-14T08:53:59.005Z,-4.87
2022-12-14T08:56:28.271Z,-4.82
2022-12-14T08:58:56.844Z,-4.77
2022-12-14T09:01:32.964Z,-4.82
2022-12-14T09:04:05.056Z,-4.81
2022-12-14T09:06:34.999Z,-4.84
2022-12-14T09:09:03.416Z,-4.75
2022-12-14T09:11:30.967Z,-4.76
2022-12-14T09:13:58.485Z,-4.77
2022-12-14T09:16:26.503Z,-4.81
2022-12-14T09:18:55.415Z,-4.81
2022-12-14T09:21:23.393Z,-4.84
2022-12-14T09:23:55.730Z,-4.78
2022-12-14T09:26:26.948Z,-4.77
2022-12-14T09:28:56.076Z,-4.79
2022-12-14T09:31:27.054Z,-4.83
2022-12-14T09:33:55.411Z,-4.80
2022-12-14T09:36:26.552Z,-4.76
2022-12-14T09:38:56.670Z,-4.86
2022-12-14T09:41:34.532Z,-4.89
2022-12-14T09:44:31.323Z,-4.92
2022-12-14T09:47:01.810Z,-4.87
2022-12-14T09:49:31.366Z,-4.92
2022-12-14T09:52:05.191Z,-4.85
2022-12-14T09:54:36.820Z,-4.76
2022-12-14T09:57:25.416Z,-4.69
2022-12-14T09:59:56.649Z,-4.63
2022-12-14T10:02:43.548Z,-4.61
2022-12-14T10:05:33.029Z,-4.56
2022-12-14T10:08:17.105Z,-4.51
2022-12-14T10:10:55.781Z,-4.52
2022-12-14T10:13:43.611Z,-4.56
2022-12-14T10:16:48.432Z,-4.57
2022-12-14T10:19:50.991Z,-4.52
2022-12-14T10:22:31.655Z,-4.53
2022-12-14T10:25:06.759Z,-4.49
2022-12-14T10:28:01.090Z,-4.44
2022-12-14T10:30:23.460Z,-4.45
2022-12-14T10:32:53.992Z,-4.44
2022-12-14T10:35:46.881Z,-4.49
2022-12-14T10:38:36.249Z,-4.57
2022-12-14T10:41:23.269Z,-4.62
2022-12-14T10:44:01.012Z,-4.62
2022-12-14T10:46:48.420Z,-4.68
2022-12-14T10:49:27.076Z,-4.71
2022-12-14T10:52:03.539Z,-4.74
2022-12-14T10:55:03.177Z,-4.68
2022-12-14T10:57:30.764Z,-4.68
2022-12-14T11:00:09.583Z,-4.74
2022-12-14T11:02:41.754Z,-4.76
2022-12-14T11:05:41.168Z,-4.74
2022-12-14T11:08:08.586Z,-4.72
2022-12-14T11:10:39.574Z,-4.72
2022-12-14T11:13:19.112Z,-4.67
2022-12-14T11:15:52.452Z,-4.65
2022-12-14T11:18:20.217Z,-4.68
2022-12-14T11:20:57.279Z,-4.60
2022-12-14T11:23:36.901Z,-4.61
2022-12-14T11:26:20.920Z,-4.62
2022-12-14T11:29:00.537Z,-4.52
2022-12-14T11:31:34.391Z,-4.52
2022-12-14T11:34:04.596Z,-4.55
2022-12-14T11:36:41.429Z,-4.52
2022-12-14T11:39:14.886Z,-4.48
2022-12-14T11:41:46.411Z,-4.49
2022-12-14T11:44:16.776Z,-4.51
2022-12-14T11:46:53.847Z,-4.56
2022-12-14T11:49:25.929Z,-4.57
2022-12-14T11:51:55.870Z,-4.60
2022-12-14T11:54:23.423Z,-4.57
2022-12-14T11:56:52.191Z,-4.66
2022-12-14T11:59:20.636Z,-4.57
2022-12-14T12:01:48.750Z,-4.52
2022-12-14T12:04:17.586Z,-4.53
2022-12-14T12:06:45.561Z,-4.49
2022-12-14T12:09:30.650Z,-4.55
2022-12-14T12:11:58.309Z,-4.49
2022-12-14T12:14:29.497Z,-4.48
2022-12-14T12:16:57.936Z,-4.38
2022-12-14T12:19:30.763Z,-4.48
2022-12-14T12:22:02.470Z,-4.53
2022-12-14T12:25:08.218Z,-4.54
2022-12-14T12:27:33.975Z,-4.55
2022-12-14T12:30:07.321Z,-4.55
2022-12-14T12:32:43.653Z,-4.53
2022-12-14T12:35:56.126Z,-4.52
2022-12-14T12:38:42.241Z,-4.50
2022-12-14T12:41:15.828Z,-4.47
2022-12-14T12:43:49.983Z,-4.46
2022-12-14T12:46:24.447Z,-4.46
2022-12-14T12:49:13.144Z,-4.55
2022-12-14T12:52:14.506Z,-4.55
2022-12-14T12:54:57.028Z,-4.58
2022-12-14T12:57:31.101Z,-4.56
2022-12-14T13:00:00.122Z,-4.47
2022-12-14T13:02:30.641Z,-4.48
2022-12-14T13:08:19.282Z,-4.44
2022-12-14T13:13:45.575Z,-4.38
2022-12-14T13:16:27.635Z,-4.38
2022-12-14T13:19:40.417Z,-4.40
2022-12-14T13:21:56.293Z,-4.39
2022-12-14T13:24:25.834Z,-4.36
2022-12-14T13:27:05.667Z,-4.35
2022-12-14T13:29:58.122Z,-4.28
2022-12-14T13:32:59.461Z,-4.29
2022-12-14T13:35:54.869Z,-4.27
2022-12-14T13:38:32.685Z,-4.30
2022-12-14T13:41:03.645Z,-4.29
2022-12-14T13:43:37.132Z,-4.28
2022-12-14T13:46:07.546Z,-4.25
2022-12-14T13:48:41.335Z,-4.19
2022-12-14T13:51:20.107Z,-4.19
2022-12-14T13:53:54.881Z,-4.15
2022-12-14T13:56:32.464Z,-4.16
2022-12-14T13:59:05.541Z,-4.12
2022-12-14T14:01:48.673Z,-4.12
2022-12-14T14:04:27.370Z,-4.12
2022-12-14T14:07:16.643Z,-4.11
2022-12-14T14:09:57.055Z,-4.11
2022-12-14T14:12:30.178Z,-4.16
2022-12-14T14:15:22.712Z,-4.15
2022-12-14T14:17:55.466Z,-4.18
2022-12-14T14:20:47.808Z,-4.20
2022-12-14T14:23:17.754Z,-4.23
2022-12-14T14:26:30.398Z,-4.24
2022-12-14T14:29:24.645Z,-4.27
2022-12-14T14:32:01.549Z,-4.30
2022-12-14T14:34:44.033Z,-4.29
2022-12-14T14:37:14.486Z,-4.29
2022-12-14T14:40:07.178Z,-4.28
2022-12-14T14:42:34.666Z,-4.28
2022-12-14T14:45:08.781Z,-4.29
2022-12-14T14:47:38.666Z,-4.31
2022-12-14T14:50:23.657Z,-4.33
2022-12-14T14:53:33.639Z,-4.36
2022-12-14T14:56:21.745Z,-4.34
2022-12-14T14:58:50.331Z,-4.31
2022-12-14T15:01:25.073Z,-4.27
2022-12-14T15:04:09.885Z,-4.22
2022-12-14T15:06:44.071Z,-4.18
2022-12-14T15:09:46.607Z,-4.18
2022-12-14T15:12:28.790Z,-4.12
2022-12-14T15:15:02.207Z,-4.06
2022-12-14T15:17:30.436Z,-4.06
2022-12-14T15:20:01.021Z,-4.06
2022-12-14T15:22:35.483Z,-4.10
2022-12-14T15:25:03.598Z,-4.07
2022-12-14T15:27:36.800Z,-3.99
2022-12-14T15:30:10.400Z,-3.94
2022-12-14T15:32:45.800Z,-3.86
2022-12-14T15:35:20.169Z,-3.77
2022-12-14T15:37:50.040Z,-3.70
2022-12-14T15:40:22.841Z,-3.62
2022-12-14T15:42:56.453Z,-3.59
2022-12-14T15:45:23.858Z,-3.51
2022-12-14T15:47:52.152Z,-3.46
2022-12-14T15:50:30.259Z,-3.36
2022-12-14T15:53:14.784Z,-3.29
2022-12-14T15:55:43.704Z,-3.28
2022-12-14T15:58:20.195Z,-3.30
2022-12-14T16:00:50.448Z,-3.27
2022-12-14T16:03:30.607Z,-3.30
2022-12-14T16:06:00.133Z,-3.25
2022-12-14T16:08:30.708Z,-3.22
2022-12-14T16:11:01.746Z,-3.21
2022-12-14T16:13:37.590Z,-3.17
2022-12-14T16:16:11.199Z,-3.10
2022-12-14T16:18:50.781Z,-3.00
2022-12-14T16:21:26.713Z,-3.02
2022-12-14T16:23:54.495Z,-3.00
2022-12-14T16:26:42.215Z,-2.89
2022-12-14T16:29:23.299Z,-2.94
2022-12-14T16:31:58.973Z,-2.92
2022-12-14T16:34:27.595Z,-2.77
2022-12-14T16:37:30.984Z,-2.80
2022-12-14T16:39:50.027Z,-2.84
2022-12-14T16:42:26.705Z,-2.76
2022-12-14T16:44:54.290Z,-2.70
2022-12-14T16:47:26.929Z,-2.70
2022-12-14T16:50:00.003Z,-2.66
2022-12-14T16:52:27.893Z,-2.61
2022-12-14T16:55:18.662Z,-2.60
2022-12-14T16:57:48.840Z,-2.50
2022-12-14T17:00:25.141Z,-2.46
2022-12-14T17:03:16.359Z,-2.46
2022-12-14T17:05:52.165Z,-2.45
2022-12-14T17:08:19.733Z,-2.43
2022-12-14T17:10:47.302Z,-2.45
2022-12-14T17:13:15.040Z,-2.33
2022-12-14T17:15:57.627Z,-2.32
2022-12-14T17:18:29.654Z,-2.39
2022-12-14T17:20:57.764Z,-2.26
2022-12-14T17:23:25.822Z,-2.27
2022-12-14T17:25:53.481Z,-2.26
2022-12-14T17:28:29.900Z,-2.30
2022-12-14T17:30:59.562Z,-2.21
2022-12-14T17:33:29.708Z,-2.16
2022-12-14T17:35:57.890Z,-2.09
2022-12-14T17:38:25.998Z,-2.09
2022-12-14T17:40:54.477Z,-2.14
2022-12-14T17:43:26.386Z,-2.14
2022-12-14T17:45:55.013Z,-2.04
2022-12-14T17:48:22.564Z,-2.09
2022-12-14T17:50:51.291Z,-2.11
2022-12-14T17:53:30.725Z,-2.04
2022-12-14T17:55:59.038Z,-1.98
2022-12-14T17:58:27.042Z,-1.95
2022-12-14T18:01:01.509Z,-1.91
2022-12-14T18:03:32.790Z,-1.95
2022-12-14T18:06:02.241Z,-1.97
2022-12-14T18:08:30.654Z,-1.92
2022-12-14T18:11:02.086Z,-1.87
2022-12-14T18:13:33.449Z,-1.94
2022-12-14T18:16:01.756Z,-1.85
2022-12-14T18:18:30.099Z,-1.92
2022-12-14T18:21:02.835Z,-1.95
2022-12-14T18:23:32.360Z,-1.98
2022-12-14T18:26:02.732Z,-1.94
2022-12-14T18:28:31.332Z,-1.81
2022-12-14T18:31:04.158Z,-1.69
2022-12-14T18:33:34.584Z,-1.70
2022-12-14T18:36:02.807Z,-1.69
2022-12-14T18:38:31.432Z,-1.65
2022-12-14T18:41:01.970Z,-1.65
2022-12-14T18:43:32.231Z,-1.59
2022-12-14T18:46:00.378Z,-1.57
2022-12-14T18:48:28.423Z,-1.37
2022-12-14T18:50:56.239Z,-1.34
2022-12-14T18:53:25.935Z,-1.48
2022-12-14T18:55:54.547Z,-1.29
2022-12-14T18:58:28.119Z,-1.41
2022-12-14T19:00:59.409Z,-1.17
2022-12-14T19:03:32.446Z,-1.03
2022-12-14T19:08:59.235Z,-1.21
2022-12-14T19:11:34.644Z,-1.25
2022-12-14T19:14:05.627Z,-1.37
2022-12-14T19:16:35.059Z,-1.13
2022-12-14T19:19:04.209Z,-1.13
2022-12-14T19:21:32.627Z,-1.20
2022-12-14T19:24:04.341Z,-1.08
2022-12-14T19:26:33.637Z,-1.00
2022-12-14T19:29:01.889Z,-1.04
2022-12-14T19:31:32.411Z,-1.16
2022-12-14T19:34:01.068Z,-1.00
2022-12-14T19:36:30.450Z,-1.05
2022-12-14T19:38:59.417Z,-0.98
2022-12-14T19:41:28.286Z,-0.95
2022-12-14T19:43:57.323Z,-0.96
2022-12-14T19:46:25.415Z,-0.96
2022-12-14T19:48:53.500Z,-0.98
2022-12-14T19:51:21.870Z,-0.96
2022-12-14T19:53:50.229Z,-0.88
2022-12-14T19:56:19.913Z,-0.88
2022-12-14T19:58:48.480Z,-0.82
2022-12-14T20:01:17.922Z,-0.85
2022-12-14T20:03:46.602Z,-0.82
2022-12-14T20:06:14.597Z,-0.82
2022-12-14T20:08:43.375Z,-0.78
2022-12-14T20:11:11.448Z,-0.72
2022-12-14T20:13:39.570Z,-0.74
2022-12-14T20:16:07.746Z,-0.71
2022-12-14T20:18:35.859Z,-0.74
2022-12-14T20:21:06.879Z,-0.76
2022-12-14T20:23:36.432Z,-0.81
2022-12-14T20:26:07.838Z,-0.76
2022-12-14T20:28:36.584Z,-0.74
2022-12-14T20:31:09.815Z,-0.78
2022-12-14T20:33:38.757Z,-0.84
2022-12-14T20:36:07.958Z,-0.77
2022-12-14T20:38:35.793Z,-0.75
2022-12-14T20:41:08.671Z,-0.77
2022-12-14T20:43:39.321Z,-0.75
2022-12-14T20:46:22.828Z,-0.80
2022-12-14T20:48:50.866Z,-0.74
2022-12-14T20:51:18.501Z,-0.76
2022-12-14T20:53:49.209Z,-0.84
2022-12-14T20:56:17.256Z,-0.76
2022-12-14T20:58:46.363Z,-0.77
2022-12-14T21:01:15.861Z,-0.70
2022-12-14T21:03:46.796Z,-0.72
2022-12-14T21:06:16.014Z,-0.70
2022-12-14T21:09:02.164Z,-0.66
2022-12-14T21:11:49.099Z,-0.69
2022-12-14T21:14:17.214Z,-0.71
2022-12-14T21:16:44.997Z,-0.63
2022-12-14T21:19:13.998Z,-0.68
2022-12-14T21:21:45.622Z,-0.68
2022-12-14T21:24:37.348Z,-0.66
2022-12-14T21:27:05.231Z,-0.71
2022-12-14T21:29:33.237Z,-0.69
2022-12-14T21:32:01.078Z,-0.64
2022-12-14T21:34:28.947Z,-0.69
2022-12-14T21:36:56.720Z,-0.59
2022-12-14T21:39:24.584Z,-0.57
2022-12-14T21:42:10.503Z,-0.57
2022-12-14T21:44:39.684Z,-0.55
2022-12-14T21:47:11.858Z,-0.59
2022-12-14T21:49:41.888Z,-0.61
2022-12-14T21:52:12.743Z,-0.60
2022-12-14T21:54:41.035Z,-0.64
2022-12-14T21:57:32.365Z,-0.65
2022-12-14T22:00:00.061Z,-0.61
2022-12-14T22:02:28.359Z,-0.58
2022-12-14T22:04:56.358Z,-0.58
2022-12-14T22:07:28.884Z,-0.61
2022-12-14T22:09:57.161Z,-0.57
2022-12-14T22:12:24.614Z,-0.53
2022-12-14T22:14:52.094Z,-0.53
2022-12-14T22:17:19.538Z,-0.52
2022-12-14T22:19:48.547Z,-0.52
2022-12-14T22:22:16.864Z,-0.50
2022-12-14T22:24:45.083Z,-0.47
2022-12-14T22:27:13.037Z,-0.45
2022-12-14T22:29:40.549Z,-0.46
2022-12-14T22:32:08.425Z,-0.47
2022-12-14T22:34:36.089Z,-0.50
2022-12-14T22:37:03.668Z,-0.49
2022-12-14T22:39:31.165Z,-0.46
2022-12-14T22:41:58.680Z,-0.48
2022-12-14T22:44:26.057Z,-0.46
2022-12-14T22:46:53.938Z,-0.48
2022-12-14T22:49:22.978Z,-0.46
2022-12-14T22:51:50.745Z,-0.44
2022-12-14T22:54:22.403Z,-0.44
2022-12-14T22:56:56.830Z,-0.42
2022-12-14T22:59:56.874Z,-0.43
2022-12-14T23:02:25.009Z,-0.47
2022-12-14T23:04:52.644Z,-0.44
2022-12-14T23:07:20.093Z,-0.41
2022-12-14T23:10:06.868Z,-0.44
2022-12-14T23:12:53.093Z,-0.41
2022-12-14T23:15:39.423Z,-0.45
2022-12-14T23:18:26.469Z,-0.45
2022-12-14T23:21:12.760Z,-0.46
2022-12-14T23:24:00.651Z,-0.41
2022-12-14T23:26:46.837Z,-0.38
2022-12-14T23:29:33.435Z,-0.37
2022-12-14T23:32:19.115Z,-0.39
2022-12-14T23:35:08.466Z,-0.39
2022-12-14T23:37:54.498Z,-0.41
2022-12-14T23:40:40.904Z,-0.39
2022-12-14T23:43:33.336Z,-0.44
2022-12-14T23:46:21.540Z,-0.49
2022-12-14T23:49:13.524Z,-0.49
2022-12-14T23:52:02.245Z,-0.49
2022-12-14T23:54:48.281Z,-0.48
2022-12-14T23:57:34.538Z,-0.47
